sensor_id;sensor_type;location;lat;lon;timestamp;P1;durP1;ratioP1;P2;durP2;ratioP2
39314;SDS011;28703;44.412;11.918;2023-05-07T00:02:33;19.17;;;17.33;;
39314;SDS011;28703;44.412;11.918;2023-05-07T00:05:00;23.77;;;17.27;;
39314;SDS011;28703;44.412;11.918;2023-05-07T00:07:27;20.80;;;17.60;;
39314;SDS011;28703;44.412;11.918;2023-05-07T00:09:53;19.48;;;17.48;;
39314;SDS011;28703;44.412;11.918;2023-05-07T00:12:19;20.05;;;18.05;;
39314;SDS011;28703;44.412;11.918;2023-05-07T00:14:45;27.08;;;18.00;;
39314;SDS011;28703;44.412;11.918;2023-05-07T00:17:29;20.95;;;17.92;;
39314;SDS011;28703;44.412;11.918;2023-05-07T00:19:55;19.30;;;17.38;;
39314;SDS011;28703;44.412;11.918;2023-05-07T00:22:40;20.58;;;18.55;;
39314;SDS011;28703;44.412;11.918;2023-05-07T00:25:25;19.08;;;17.38;;
39314;SDS011;28703;44.412;11.918;2023-05-07T00:27:51;19.10;;;17.35;;
39314;SDS011;28703;44.412;11.918;2023-05-07T00:30:16;18.83;;;17.13;;
39314;SDS011;28703;44.412;11.918;2023-05-07T00:32:42;19.02;;;17.17;;
39314;SDS011;28703;44.412;11.918;2023-05-07T00:35:10;18.65;;;16.95;;
39314;SDS011;28703;44.412;11.918;2023-05-07T00:37:36;21.20;;;18.15;;
39314;SDS011;28703;44.412;11.918;2023-05-07T00:40:02;19.83;;;17.83;;
39314;SDS011;28703;44.412;11.918;2023-05-07T00:42:32;22.48;;;17.83;;
39314;SDS011;28703;44.412;11.918;2023-05-07T00:45:22;19.67;;;17.55;;
39314;SDS011;28703;44.412;11.918;2023-05-07T00:48:07;18.77;;;16.88;;
39314;SDS011;28703;44.412;11.918;2023-05-07T00:50:33;18.50;;;16.70;;
39314;SDS011;28703;44.412;11.918;2023-05-07T00:52:59;19.88;;;17.92;;
39314;SDS011;28703;44.412;11.918;2023-05-07T00:55:44;19.38;;;17.38;;
39314;SDS011;28703;44.412;11.918;2023-05-07T00:58:11;18.58;;;16.77;;
39314;SDS011;28703;44.412;11.918;2023-05-07T01:00:37;20.27;;;18.13;;
39314;SDS011;28703;44.412;11.918;2023-05-07T01:03:03;19.75;;;17.75;;
39314;SDS011;28703;44.412;11.918;2023-05-07T01:05:47;19.40;;;17.23;;
39314;SDS011;28703;44.412;11.918;2023-05-07T01:11:21;18.73;;;16.85;;
39314;SDS011;28703;44.412;11.918;2023-05-07T01:14:06;21.75;;;16.85;;
39314;SDS011;28703;44.412;11.918;2023-05-07T01:16:33;20.33;;;17.27;;
39314;SDS011;28703;44.412;11.918;2023-05-07T01:19:20;19.95;;;18.05;;
39314;SDS011;28703;44.412;11.918;2023-05-07T01:21:46;19.90;;;17.65;;
39314;SDS011;28703;44.412;11.918;2023-05-07T01:24:15;21.20;;;17.80;;
39314;SDS011;28703;44.412;11.918;2023-05-07T01:26:42;21.88;;;17.73;;
39314;SDS011;28703;44.412;11.918;2023-05-07T01:32:00;19.13;;;17.10;;
39314;SDS011;28703;44.412;11.918;2023-05-07T01:34:28;18.73;;;16.98;;
39314;SDS011;28703;44.412;11.918;2023-05-07T01:37:14;17.85;;;16.25;;
39314;SDS011;28703;44.412;11.918;2023-05-07T01:39:40;20.42;;;16.58;;
39314;SDS011;28703;44.412;11.918;2023-05-07T01:42:07;17.77;;;16.17;;
39314;SDS011;28703;44.412;11.918;2023-05-07T01:50:22;18.67;;;16.23;;
39314;SDS011;28703;44.412;11.918;2023-05-07T01:52:50;16.80;;;15.10;;
39314;SDS011;28703;44.412;11.918;2023-05-07T01:55:34;18.30;;;16.40;;
39314;SDS011;28703;44.412;11.918;2023-05-07T01:58:02;17.83;;;16.23;;
39314;SDS011;28703;44.412;11.918;2023-05-07T02:00:47;18.23;;;16.42;;
39314;SDS011;28703;44.412;11.918;2023-05-07T02:03:32;19.05;;;14.13;;
39314;SDS011;28703;44.412;11.918;2023-05-07T02:06:06;16.60;;;14.73;;
39314;SDS011;28703;44.412;11.918;2023-05-07T02:11:21;18.88;;;15.40;;
39314;SDS011;28703;44.412;11.918;2023-05-07T02:13:47;16.23;;;14.55;;
39314;SDS011;28703;44.412;11.918;2023-05-07T02:16:13;21.40;;;14.80;;
39314;SDS011;28703;44.412;11.918;2023-05-07T02:19:16;15.85;;;13.98;;
39314;SDS011;28703;44.412;11.918;2023-05-07T02:24:29;15.07;;;13.77;;
39314;SDS011;28703;44.412;11.918;2023-05-07T02:26:55;15.73;;;14.05;;
39314;SDS011;28703;44.412;11.918;2023-05-07T02:30:17;15.07;;;13.68;;
39314;SDS011;28703;44.412;11.918;2023-05-07T02:33:02;15.80;;;14.23;;
39314;SDS011;28703;44.412;11.918;2023-05-07T02:35:47;15.00;;;10.75;;
39314;SDS011;28703;44.412;11.918;2023-05-07T02:38:33;12.27;;;11.02;;
39314;SDS011;28703;44.412;11.918;2023-05-07T02:43:43;14.93;;;13.48;;
39314;SDS011;28703;44.412;11.918;2023-05-07T02:46:10;18.10;;;14.68;;
39314;SDS011;28703;44.412;11.918;2023-05-07T02:48:40;16.63;;;15.13;;
39314;SDS011;28703;44.412;11.918;2023-05-07T02:51:06;16.08;;;14.52;;
39314;SDS011;28703;44.412;11.918;2023-05-07T02:53:34;16.42;;;14.70;;
39314;SDS011;28703;44.412;11.918;2023-05-07T02:56:20;17.15;;;15.45;;
39314;SDS011;28703;44.412;11.918;2023-05-07T02:59:04;16.33;;;14.70;;
39314;SDS011;28703;44.412;11.918;2023-05-07T03:04:20;17.58;;;13.70;;
39314;SDS011;28703;44.412;11.918;2023-05-07T03:06:46;17.02;;;14.07;;
39314;SDS011;28703;44.412;11.918;2023-05-07T03:09:30;17.90;;;14.60;;
39314;SDS011;28703;44.412;11.918;2023-05-07T03:12:15;17.48;;;15.70;;
39314;SDS011;28703;44.412;11.918;2023-05-07T03:14:41;19.67;;;15.35;;
39314;SDS011;28703;44.412;11.918;2023-05-07T03:17:07;19.90;;;16.20;;
39314;SDS011;28703;44.412;11.918;2023-05-07T03:19:33;18.35;;;14.40;;
39314;SDS011;28703;44.412;11.918;2023-05-07T03:21:59;20.08;;;15.15;;
39314;SDS011;28703;44.412;11.918;2023-05-07T03:24:43;15.90;;;13.93;;
39314;SDS011;28703;44.412;11.918;2023-05-07T03:27:09;15.45;;;13.93;;
39314;SDS011;28703;44.412;11.918;2023-05-07T03:29:35;15.15;;;13.70;;
39314;SDS011;28703;44.412;11.918;2023-05-07T03:34:47;15.38;;;13.88;;
39314;SDS011;28703;44.412;11.918;2023-05-07T03:37:12;14.52;;;12.88;;
39314;SDS011;28703;44.412;11.918;2023-05-07T03:39:56;13.68;;;12.18;;
39314;SDS011;28703;44.412;11.918;2023-05-07T03:42:23;14.10;;;12.40;;
39314;SDS011;28703;44.412;11.918;2023-05-07T03:45:27;14.73;;;11.40;;
39314;SDS011;28703;44.412;11.918;2023-05-07T03:48:16;14.32;;;11.35;;
39314;SDS011;28703;44.412;11.918;2023-05-07T03:50:42;15.93;;;11.13;;
39314;SDS011;28703;44.412;11.918;2023-05-07T03:53:27;16.30;;;13.15;;
39314;SDS011;28703;44.412;11.918;2023-05-07T03:55:53;15.55;;;13.95;;
39314;SDS011;28703;44.412;11.918;2023-05-07T03:58:39;17.17;;;14.15;;
39314;SDS011;28703;44.412;11.918;2023-05-07T04:01:08;15.02;;;12.40;;
39314;SDS011;28703;44.412;11.918;2023-05-07T04:03:53;15.70;;;13.95;;
39314;SDS011;28703;44.412;11.918;2023-05-07T04:06:37;14.88;;;13.38;;
39314;SDS011;28703;44.412;11.918;2023-05-07T04:09:03;18.58;;;13.57;;
39314;SDS011;28703;44.412;11.918;2023-05-07T04:11:30;14.55;;;12.68;;
39314;SDS011;28703;44.412;11.918;2023-05-07T04:14:14;13.95;;;12.65;;
39314;SDS011;28703;44.412;11.918;2023-05-07T04:16:40;13.55;;;12.15;;
39314;SDS011;28703;44.412;11.918;2023-05-07T04:19:25;13.88;;;12.05;;
39314;SDS011;28703;44.412;11.918;2023-05-07T04:21:52;16.73;;;13.55;;
39314;SDS011;28703;44.412;11.918;2023-05-07T04:24:19;15.63;;;12.85;;
39314;SDS011;28703;44.412;11.918;2023-05-07T04:27:04;14.65;;;13.05;;
39314;SDS011;28703;44.412;11.918;2023-05-07T04:29:31;15.38;;;13.35;;
39314;SDS011;28703;44.412;11.918;2023-05-07T04:31:57;15.82;;;14.13;;
39314;SDS011;28703;44.412;11.918;2023-05-07T04:34:43;26.92;;;16.05;;
39314;SDS011;28703;44.412;11.918;2023-05-07T04:37:28;19.20;;;17.20;;
39314;SDS011;28703;44.412;11.918;2023-05-07T04:40:31;21.23;;;16.95;;
39314;SDS011;28703;44.412;11.918;2023-05-07T04:42:59;18.95;;;16.98;;
39314;SDS011;28703;44.412;11.918;2023-05-07T04:45:28;20.83;;;18.73;;
39314;SDS011;28703;44.412;11.918;2023-05-07T04:48:14;23.40;;;17.88;;
39314;SDS011;28703;44.412;11.918;2023-05-07T04:50:41;22.55;;;19.00;;
39314;SDS011;28703;44.412;11.918;2023-05-07T04:53:26;22.80;;;19.25;;
39314;SDS011;28703;44.412;11.918;2023-05-07T04:55:57;21.00;;;17.58;;
39314;SDS011;28703;44.412;11.918;2023-05-07T04:58:29;22.08;;;17.30;;
39314;SDS011;28703;44.412;11.918;2023-05-07T05:00:57;20.40;;;18.27;;
39314;SDS011;28703;44.412;11.918;2023-05-07T05:03:42;25.00;;;19.13;;
39314;SDS011;28703;44.412;11.918;2023-05-07T05:06:45;24.15;;;20.77;;
39314;SDS011;28703;44.412;11.918;2023-05-07T05:09:13;20.45;;;18.38;;
39314;SDS011;28703;44.412;11.918;2023-05-07T05:15:03;21.95;;;19.38;;
39314;SDS011;28703;44.412;11.918;2023-05-07T05:17:31;22.15;;;20.02;;
39314;SDS011;28703;44.412;11.918;2023-05-07T05:20:17;23.77;;;20.60;;
39314;SDS011;28703;44.412;11.918;2023-05-07T05:22:44;22.35;;;19.98;;
39314;SDS011;28703;44.412;11.918;2023-05-07T05:25:11;25.05;;;21.90;;
39314;SDS011;28703;44.412;11.918;2023-05-07T05:27:37;25.35;;;22.02;;
39314;SDS011;28703;44.412;11.918;2023-05-07T05:30:04;27.02;;;24.10;;
39314;SDS011;28703;44.412;11.918;2023-05-07T05:32:32;26.15;;;23.50;;
39314;SDS011;28703;44.412;11.918;2023-05-07T05:34:58;26.73;;;24.02;;
39314;SDS011;28703;44.412;11.918;2023-05-07T05:37:25;27.70;;;24.35;;
39314;SDS011;28703;44.412;11.918;2023-05-07T05:42:37;33.55;;;25.73;;
39314;SDS011;28703;44.412;11.918;2023-05-07T05:45:03;26.38;;;23.55;;
39314;SDS011;28703;44.412;11.918;2023-05-07T05:47:31;30.23;;;23.95;;
39314;SDS011;28703;44.412;11.918;2023-05-07T05:49:58;23.95;;;21.45;;
39314;SDS011;28703;44.412;11.918;2023-05-07T05:52:24;26.65;;;23.67;;
39314;SDS011;28703;44.412;11.918;2023-05-07T05:54:51;25.77;;;23.08;;
39314;SDS011;28703;44.412;11.918;2023-05-07T05:57:18;27.48;;;21.42;;
39314;SDS011;28703;44.412;11.918;2023-05-07T05:59:44;25.13;;;22.17;;
39314;SDS011;28703;44.412;11.918;2023-05-07T06:02:32;23.45;;;21.00;;
39314;SDS011;28703;44.412;11.918;2023-05-07T06:04:58;25.83;;;23.25;;
39314;SDS011;28703;44.412;11.918;2023-05-07T06:07:24;23.98;;;20.88;;
39314;SDS011;28703;44.412;11.918;2023-05-07T06:10:10;26.67;;;23.98;;
39314;SDS011;28703;44.412;11.918;2023-05-07T06:12:37;26.77;;;23.83;;
39314;SDS011;28703;44.412;11.918;2023-05-07T06:15:06;26.88;;;23.90;;
39314;SDS011;28703;44.412;11.918;2023-05-07T06:17:32;30.42;;;22.77;;
39314;SDS011;28703;44.412;11.918;2023-05-07T06:19:59;25.77;;;23.02;;
39314;SDS011;28703;44.412;11.918;2023-05-07T06:22:25;28.50;;;23.25;;
39314;SDS011;28703;44.412;11.918;2023-05-07T06:24:51;28.60;;;22.30;;
39314;SDS011;28703;44.412;11.918;2023-05-07T06:27:17;28.92;;;23.65;;
39314;SDS011;28703;44.412;11.918;2023-05-07T06:29:44;37.85;;;29.33;;
39314;SDS011;28703;44.412;11.918;2023-05-07T06:32:14;28.98;;;23.83;;
39314;SDS011;28703;44.412;11.918;2023-05-07T06:34:44;41.33;;;26.83;;
39314;SDS011;28703;44.412;11.918;2023-05-07T06:37:28;26.23;;;23.52;;
39314;SDS011;28703;44.412;11.918;2023-05-07T06:39:59;26.55;;;23.77;;
39314;SDS011;28703;44.412;11.918;2023-05-07T06:42:27;30.80;;;23.38;;
39314;SDS011;28703;44.412;11.918;2023-05-07T06:44:57;25.85;;;23.17;;
39314;SDS011;28703;44.412;11.918;2023-05-07T06:47:24;26.00;;;23.15;;
39314;SDS011;28703;44.412;11.918;2023-05-07T06:49:53;25.95;;;22.63;;
39314;SDS011;28703;44.412;11.918;2023-05-07T06:52:22;25.95;;;23.15;;
39314;SDS011;28703;44.412;11.918;2023-05-07T06:54:52;27.55;;;24.77;;
39314;SDS011;28703;44.412;11.918;2023-05-07T07:00:06;28.10;;;23.70;;
39314;SDS011;28703;44.412;11.918;2023-05-07T07:02:54;23.70;;;21.15;;
39314;SDS011;28703;44.412;11.918;2023-05-07T07:05:29;25.98;;;23.23;;
39314;SDS011;28703;44.412;11.918;2023-05-07T07:08:13;24.55;;;18.35;;
39314;SDS011;28703;44.412;11.918;2023-05-07T07:10:40;30.58;;;25.75;;
39314;SDS011;28703;44.412;11.918;2023-05-07T07:13:06;22.77;;;20.45;;
39314;SDS011;28703;44.412;11.918;2023-05-07T07:15:32;23.40;;;20.38;;
39314;SDS011;28703;44.412;11.918;2023-05-07T07:17:59;37.63;;;33.53;;
39314;SDS011;28703;44.412;11.918;2023-05-07T07:20:44;25.08;;;22.27;;
39314;SDS011;28703;44.412;11.918;2023-05-07T07:23:10;24.95;;;22.27;;
39314;SDS011;28703;44.412;11.918;2023-05-07T07:25:37;24.17;;;21.77;;
39314;SDS011;28703;44.412;11.918;2023-05-07T07:28:04;25.63;;;22.98;;
39314;SDS011;28703;44.412;11.918;2023-05-07T07:30:33;23.65;;;21.05;;
39314;SDS011;28703;44.412;11.918;2023-05-07T07:32:59;33.30;;;29.88;;
39314;SDS011;28703;44.412;11.918;2023-05-07T07:38:14;22.88;;;20.40;;
39314;SDS011;28703;44.412;11.918;2023-05-07T07:40:40;23.55;;;21.17;;
39314;SDS011;28703;44.412;11.918;2023-05-07T07:43:07;21.27;;;19.08;;
39314;SDS011;28703;44.412;11.918;2023-05-07T07:45:33;26.23;;;23.63;;
39314;SDS011;28703;44.412;11.918;2023-05-07T07:48:00;22.90;;;20.52;;
39314;SDS011;28703;44.412;11.918;2023-05-07T07:50:48;22.55;;;20.33;;
39314;SDS011;28703;44.412;11.918;2023-05-07T07:53:16;23.55;;;18.58;;
39314;SDS011;28703;44.412;11.918;2023-05-07T07:55:43;21.42;;;18.70;;
39314;SDS011;28703;44.412;11.918;2023-05-07T07:58:13;20.42;;;17.40;;
39314;SDS011;28703;44.412;11.918;2023-05-07T08:00:41;19.38;;;17.60;;
39314;SDS011;28703;44.412;11.918;2023-05-07T08:03:11;17.17;;;15.35;;
39314;SDS011;28703;44.412;11.918;2023-05-07T08:05:55;17.92;;;16.15;;
39314;SDS011;28703;44.412;11.918;2023-05-07T08:08:22;16.55;;;14.98;;
39314;SDS011;28703;44.412;11.918;2023-05-07T08:10:49;15.30;;;13.73;;
39314;SDS011;28703;44.412;11.918;2023-05-07T08:13:34;14.65;;;12.82;;
39314;SDS011;28703;44.412;11.918;2023-05-07T08:16:18;13.30;;;12.10;;
39314;SDS011;28703;44.412;11.918;2023-05-07T08:19:22;12.32;;;11.05;;
39314;SDS011;28703;44.412;11.918;2023-05-07T08:22:10;13.52;;;12.05;;
39314;SDS011;28703;44.412;11.918;2023-05-07T08:24:38;12.55;;;10.82;;
39314;SDS011;28703;44.412;11.918;2023-05-07T08:27:04;10.98;;;8.57;;
39314;SDS011;28703;44.412;11.918;2023-05-07T08:29:30;9.05;;;8.15;;
39314;SDS011;28703;44.412;11.918;2023-05-07T08:31:56;9.77;;;8.77;;
39314;SDS011;28703;44.412;11.918;2023-05-07T08:34:22;13.27;;;8.98;;
39314;SDS011;28703;44.412;11.918;2023-05-07T08:36:50;13.20;;;9.55;;
39314;SDS011;28703;44.412;11.918;2023-05-07T08:39:20;11.13;;;10.02;;
39314;SDS011;28703;44.412;11.918;2023-05-07T08:41:48;16.83;;;10.30;;
39314;SDS011;28703;44.412;11.918;2023-05-07T08:44:38;11.75;;;10.57;;
39314;SDS011;28703;44.412;11.918;2023-05-07T08:47:06;12.18;;;9.52;;
39314;SDS011;28703;44.412;11.918;2023-05-07T08:49:33;10.23;;;9.27;;
39314;SDS011;28703;44.412;11.918;2023-05-07T08:52:02;9.00;;;8.15;;
39314;SDS011;28703;44.412;11.918;2023-05-07T08:54:42;13.25;;;9.20;;
39314;SDS011;28703;44.412;11.918;2023-05-07T08:57:27;10.63;;;9.52;;
39314;SDS011;28703;44.412;11.918;2023-05-07T08:59:54;12.70;;;10.25;;
39314;SDS011;28703;44.412;11.918;2023-05-07T09:02:59;11.30;;;10.20;;
39314;SDS011;28703;44.412;11.918;2023-05-07T09:05:26;11.43;;;10.25;;
39314;SDS011;28703;44.412;11.918;2023-05-07T09:07:52;8.70;;;7.88;;
39314;SDS011;28703;44.412;11.918;2023-05-07T09:10:25;10.05;;;8.93;;
39314;SDS011;28703;44.412;11.918;2023-05-07T09:12:52;8.98;;;8.18;;
39314;SDS011;28703;44.412;11.918;2023-05-07T09:15:18;16.42;;;8.98;;
39314;SDS011;28703;44.412;11.918;2023-05-07T09:17:44;11.95;;;9.20;;
39314;SDS011;28703;44.412;11.918;2023-05-07T09:20:11;11.77;;;10.73;;
39314;SDS011;28703;44.412;11.918;2023-05-07T09:22:56;13.43;;;11.05;;
39314;SDS011;28703;44.412;11.918;2023-05-07T09:25:27;11.20;;;9.90;;
39314;SDS011;28703;44.412;11.918;2023-05-07T09:28:01;10.43;;;8.80;;
39314;SDS011;28703;44.412;11.918;2023-05-07T09:30:32;9.68;;;8.35;;
39314;SDS011;28703;44.412;11.918;2023-05-07T09:33:36;17.05;;;10.38;;
39314;SDS011;28703;44.412;11.918;2023-05-07T09:36:04;9.43;;;8.52;;
39314;SDS011;28703;44.412;11.918;2023-05-07T09:38:32;9.88;;;7.88;;
39314;SDS011;28703;44.412;11.918;2023-05-07T09:41:17;18.63;;;11.82;;
39314;SDS011;28703;44.412;11.918;2023-05-07T09:44:01;8.70;;;7.80;;
39314;SDS011;28703;44.412;11.918;2023-05-07T09:46:34;10.02;;;8.52;;
39314;SDS011;28703;44.412;11.918;2023-05-07T09:49:09;10.32;;;9.43;;
39314;SDS011;28703;44.412;11.918;2023-05-07T09:52:17;10.43;;;8.68;;
39314;SDS011;28703;44.412;11.918;2023-05-07T09:55:05;10.30;;;7.83;;
39314;SDS011;28703;44.412;11.918;2023-05-07T10:00:36;6.75;;;5.80;;
39314;SDS011;28703;44.412;11.918;2023-05-07T10:03:24;9.00;;;5.72;;
39314;SDS011;28703;44.412;11.918;2023-05-07T10:05:59;10.60;;;6.95;;
39314;SDS011;28703;44.412;11.918;2023-05-07T10:11:12;8.50;;;5.78;;
39314;SDS011;28703;44.412;11.918;2023-05-07T10:13:41;6.57;;;5.72;;
39314;SDS011;28703;44.412;11.918;2023-05-07T10:16:08;7.55;;;5.30;;
39314;SDS011;28703;44.412;11.918;2023-05-07T10:18:41;7.05;;;5.78;;
39314;SDS011;28703;44.412;11.918;2023-05-07T10:21:27;8.25;;;5.35;;
39314;SDS011;28703;44.412;11.918;2023-05-07T10:24:29;4.97;;;4.50;;
39314;SDS011;28703;44.412;11.918;2023-05-07T10:27:17;6.40;;;4.82;;
39314;SDS011;28703;44.412;11.918;2023-05-07T10:29:52;6.10;;;4.95;;
39314;SDS011;28703;44.412;11.918;2023-05-07T10:32:58;6.20;;;5.63;;
39314;SDS011;28703;44.412;11.918;2023-05-07T10:35:36;5.90;;;5.28;;
39314;SDS011;28703;44.412;11.918;2023-05-07T10:38:12;4.85;;;4.32;;
39314;SDS011;28703;44.412;11.918;2023-05-07T10:44:01;13.65;;;5.97;;
39314;SDS011;28703;44.412;11.918;2023-05-07T10:46:30;12.55;;;6.20;;
39314;SDS011;28703;44.412;11.918;2023-05-07T10:49:14;8.25;;;6.68;;
39314;SDS011;28703;44.412;11.918;2023-05-07T10:57:49;9.13;;;6.72;;
39314;SDS011;28703;44.412;11.918;2023-05-07T11:03:04;8.43;;;6.18;;
39314;SDS011;28703;44.412;11.918;2023-05-07T11:08:57;9.93;;;6.32;;
39314;SDS011;28703;44.412;11.918;2023-05-07T11:11:49;11.25;;;5.72;;
39314;SDS011;28703;44.412;11.918;2023-05-07T11:14:44;9.20;;;7.45;;
39314;SDS011;28703;44.412;11.918;2023-05-07T11:17:26;12.88;;;7.95;;
39314;SDS011;28703;44.412;11.918;2023-05-07T11:20:02;6.88;;;6.18;;
39314;SDS011;28703;44.412;11.918;2023-05-07T11:22:38;7.53;;;6.07;;
39314;SDS011;28703;44.412;11.918;2023-05-07T11:25:25;6.70;;;6.10;;
39314;SDS011;28703;44.412;11.918;2023-05-07T11:28:07;11.38;;;7.43;;
39314;SDS011;28703;44.412;11.918;2023-05-07T11:33:44;8.13;;;7.35;;
39314;SDS011;28703;44.412;11.918;2023-05-07T11:36:14;9.90;;;7.88;;
39314;SDS011;28703;44.412;11.918;2023-05-07T11:41:11;14.07;;;8.73;;
39314;SDS011;28703;44.412;11.918;2023-05-07T11:43:52;9.15;;;7.95;;
39314;SDS011;28703;44.412;11.918;2023-05-07T11:46:21;10.63;;;8.18;;
39314;SDS011;28703;44.412;11.918;2023-05-07T11:48:47;13.25;;;7.28;;
39314;SDS011;28703;44.412;11.918;2023-05-07T11:51:13;11.10;;;6.63;;
39314;SDS011;28703;44.412;11.918;2023-05-07T11:53:45;9.82;;;8.85;;
39314;SDS011;28703;44.412;11.918;2023-05-07T11:56:29;9.43;;;6.30;;
39314;SDS011;28703;44.412;11.918;2023-05-07T11:59:00;7.15;;;6.45;;
39314;SDS011;28703;44.412;11.918;2023-05-07T12:01:26;9.10;;;7.90;;
39314;SDS011;28703;44.412;11.918;2023-05-07T12:03:52;7.05;;;6.35;;
39314;SDS011;28703;44.412;11.918;2023-05-07T12:09:45;9.45;;;8.40;;
39314;SDS011;28703;44.412;11.918;2023-05-07T12:12:12;8.93;;;8.05;;
39314;SDS011;28703;44.412;11.918;2023-05-07T12:14:41;7.95;;;6.45;;
39314;SDS011;28703;44.412;11.918;2023-05-07T12:22:40;9.73;;;6.63;;
39314;SDS011;28703;44.412;11.918;2023-05-07T12:25:07;11.30;;;7.15;;
39314;SDS011;28703;44.412;11.918;2023-05-07T12:27:36;7.43;;;5.78;;
39314;SDS011;28703;44.412;11.918;2023-05-07T12:30:22;8.20;;;5.78;;
39314;SDS011;28703;44.412;11.918;2023-05-07T12:32:47;5.97;;;5.40;;
39314;SDS011;28703;44.412;11.918;2023-05-07T12:35:30;9.02;;;6.25;;
39314;SDS011;28703;44.412;11.918;2023-05-07T12:37:58;9.73;;;6.00;;
39314;SDS011;28703;44.412;11.918;2023-05-07T12:40:35;11.43;;;9.02;;
39314;SDS011;28703;44.412;11.918;2023-05-07T12:43:24;8.18;;;6.95;;
39314;SDS011;28703;44.412;11.918;2023-05-07T12:46:09;16.90;;;7.07;;
39314;SDS011;28703;44.412;11.918;2023-05-07T12:48:36;9.18;;;7.40;;
39314;SDS011;28703;44.412;11.918;2023-05-07T12:51:08;7.63;;;6.75;;
39314;SDS011;28703;44.412;11.918;2023-05-07T12:53:39;7.45;;;6.40;;
39314;SDS011;28703;44.412;11.918;2023-05-07T12:56:10;7.80;;;7.13;;
39314;SDS011;28703;44.412;11.918;2023-05-07T12:58:36;8.77;;;7.43;;
39314;SDS011;28703;44.412;11.918;2023-05-07T13:01:06;7.97;;;6.45;;
39314;SDS011;28703;44.412;11.918;2023-05-07T13:03:35;11.40;;;7.05;;
39314;SDS011;28703;44.412;11.918;2023-05-07T13:06:03;6.75;;;6.15;;
39314;SDS011;28703;44.412;11.918;2023-05-07T13:08:51;6.68;;;5.57;;
39314;SDS011;28703;44.412;11.918;2023-05-07T13:14:20;6.65;;;5.22;;
39314;SDS011;28703;44.412;11.918;2023-05-07T13:16:47;10.70;;;6.68;;
39314;SDS011;28703;44.412;11.918;2023-05-07T13:19:13;9.30;;;7.57;;
39314;SDS011;28703;44.412;11.918;2023-05-07T13:21:57;10.77;;;5.50;;
39314;SDS011;28703;44.412;11.918;2023-05-07T13:24:23;5.38;;;4.82;;
39314;SDS011;28703;44.412;11.918;2023-05-07T13:27:08;8.50;;;5.45;;
39314;SDS011;28703;44.412;11.918;2023-05-07T13:29:54;6.03;;;4.95;;
39314;SDS011;28703;44.412;11.918;2023-05-07T13:32:20;6.97;;;4.90;;
39314;SDS011;28703;44.412;11.918;2023-05-07T13:35:04;6.93;;;5.45;;
39314;SDS011;28703;44.412;11.918;2023-05-07T13:37:49;8.13;;;5.45;;
39314;SDS011;28703;44.412;11.918;2023-05-07T13:40:17;6.35;;;5.60;;
39314;SDS011;28703;44.412;11.918;2023-05-07T13:42:47;5.40;;;4.40;;
39314;SDS011;28703;44.412;11.918;2023-05-07T13:45:50;5.70;;;5.10;;
39314;SDS011;28703;44.412;11.918;2023-05-07T13:48:17;6.47;;;4.78;;
39314;SDS011;28703;44.412;11.918;2023-05-07T13:51:02;4.43;;;4.05;;
39314;SDS011;28703;44.412;11.918;2023-05-07T13:53:28;6.18;;;5.35;;
39314;SDS011;28703;44.412;11.918;2023-05-07T13:55:54;5.10;;;3.75;;
39314;SDS011;28703;44.412;11.918;2023-05-07T13:58:39;4.22;;;3.63;;
39314;SDS011;28703;44.412;11.918;2023-05-07T14:04:09;5.25;;;3.80;;
39314;SDS011;28703;44.412;11.918;2023-05-07T14:06:35;6.18;;;3.92;;
39314;SDS011;28703;44.412;11.918;2023-05-07T14:09:04;6.63;;;4.13;;
39314;SDS011;28703;44.412;11.918;2023-05-07T14:11:48;8.07;;;3.95;;
39314;SDS011;28703;44.412;11.918;2023-05-07T14:14:32;6.32;;;5.72;;
39314;SDS011;28703;44.412;11.918;2023-05-07T14:17:01;5.93;;;3.28;;
39314;SDS011;28703;44.412;11.918;2023-05-07T14:19:27;5.70;;;4.05;;
39314;SDS011;28703;44.412;11.918;2023-05-07T14:22:13;8.73;;;3.45;;
39314;SDS011;28703;44.412;11.918;2023-05-07T14:24:40;4.80;;;3.70;;
39314;SDS011;28703;44.412;11.918;2023-05-07T14:30:19;5.03;;;2.90;;
39314;SDS011;28703;44.412;11.918;2023-05-07T14:32:48;6.15;;;3.65;;
39314;SDS011;28703;44.412;11.918;2023-05-07T14:35:41;3.90;;;3.53;;
39314;SDS011;28703;44.412;11.918;2023-05-07T14:38:10;5.30;;;3.03;;
39314;SDS011;28703;44.412;11.918;2023-05-07T14:40:38;3.83;;;3.55;;
39314;SDS011;28703;44.412;11.918;2023-05-07T14:43:04;6.72;;;6.10;;
39314;SDS011;28703;44.412;11.918;2023-05-07T14:45:30;8.93;;;4.78;;
39314;SDS011;28703;44.412;11.918;2023-05-07T14:48:00;6.53;;;3.85;;
39314;SDS011;28703;44.412;11.918;2023-05-07T14:50:26;7.82;;;3.97;;
39314;SDS011;28703;44.412;11.918;2023-05-07T14:53:10;6.18;;;3.60;;
39314;SDS011;28703;44.412;11.918;2023-05-07T14:55:55;4.78;;;4.13;;
39314;SDS011;28703;44.412;11.918;2023-05-07T14:58:21;7.53;;;3.47;;
39314;SDS011;28703;44.412;11.918;2023-05-07T15:00:49;3.45;;;3.20;;
39314;SDS011;28703;44.412;11.918;2023-05-07T15:03:34;4.97;;;3.40;;
39314;SDS011;28703;44.412;11.918;2023-05-07T15:06:01;7.30;;;4.78;;
39314;SDS011;28703;44.412;11.918;2023-05-07T15:08:28;4.10;;;2.95;;
39314;SDS011;28703;44.412;11.918;2023-05-07T15:10:57;9.60;;;3.33;;
39314;SDS011;28703;44.412;11.918;2023-05-07T15:13:23;9.48;;;3.42;;
39314;SDS011;28703;44.412;11.918;2023-05-07T15:15:51;4.38;;;3.28;;
39314;SDS011;28703;44.412;11.918;2023-05-07T15:18:54;3.53;;;3.22;;
39314;SDS011;28703;44.412;11.918;2023-05-07T15:21:21;5.50;;;3.42;;
39314;SDS011;28703;44.412;11.918;2023-05-07T15:27:09;3.80;;;3.30;;
39314;SDS011;28703;44.412;11.918;2023-05-07T15:29:54;5.75;;;3.30;;
39314;SDS011;28703;44.412;11.918;2023-05-07T15:35:05;5.57;;;2.97;;
39314;SDS011;28703;44.412;11.918;2023-05-07T15:40:20;3.97;;;3.40;;
39314;SDS011;28703;44.412;11.918;2023-05-07T15:45:41;26.20;;;3.67;;
39314;SDS011;28703;44.412;11.918;2023-05-07T15:48:08;5.15;;;2.88;;
39314;SDS011;28703;44.412;11.918;2023-05-07T15:50:37;3.97;;;2.72;;
39314;SDS011;28703;44.412;11.918;2023-05-07T15:53:13;7.70;;;2.70;;
39314;SDS011;28703;44.412;11.918;2023-05-07T15:55:57;5.15;;;2.53;;
39314;SDS011;28703;44.412;11.918;2023-05-07T15:58:23;6.20;;;3.25;;
39314;SDS011;28703;44.412;11.918;2023-05-07T16:01:02;3.38;;;2.90;;
39314;SDS011;28703;44.412;11.918;2023-05-07T16:03:33;7.70;;;3.10;;
39314;SDS011;28703;44.412;11.918;2023-05-07T16:06:03;2.93;;;2.63;;
39314;SDS011;28703;44.412;11.918;2023-05-07T16:08:34;3.72;;;3.20;;
39314;SDS011;28703;44.412;11.918;2023-05-07T16:11:00;5.32;;;3.55;;
39314;SDS011;28703;44.412;11.918;2023-05-07T16:13:26;7.13;;;4.07;;
39314;SDS011;28703;44.412;11.918;2023-05-07T16:16:12;6.22;;;3.92;;
39314;SDS011;28703;44.412;11.918;2023-05-07T16:19:17;4.30;;;3.88;;
39314;SDS011;28703;44.412;11.918;2023-05-07T16:22:04;6.78;;;4.32;;
39314;SDS011;28703;44.412;11.918;2023-05-07T16:27:39;5.03;;;3.85;;
39314;SDS011;28703;44.412;11.918;2023-05-07T16:30:10;4.03;;;3.63;;
39314;SDS011;28703;44.412;11.918;2023-05-07T16:32:36;7.70;;;3.55;;
39314;SDS011;28703;44.412;11.918;2023-05-07T16:38:44;17.58;;;4.40;;